Time;durP1;ratioP1;P1;durP2;ratioP2;P2;SDS_P1;SDS_P2;PMS_P1;PMS_P2;Temp;Humidity;BMP_temperature;BMP_pressure;BME280_temperature;BME280_humidity;BME280_pressure;Samples;Min_cycle;Max_cycle;Signal;HPM_P1;HPM_P2
2022/06/24 00:00:09;;;;;;;14.07;9.70;;;;;;;19.32;97.39;100415.25;5016351;28;20030;-81
2022/06/24 00:02:35;;;;;;;14.98;9.23;;;;;;;19.33;96.80;100419.66;5011679;28;20025;-81
2022/06/24 00:05:04;;;;;;;18.88;9.75;;;;;;;19.38;96.97;100443.56;5013688;28;20034;-81
2022/06/24 00:07:42;;;;;;;11.73;8.95;;;;;;;19.44;97.14;100469.06;5013171;28;20366;-81
2022/06/24 00:10:16;;;;;;;14.07;9.40;;;;;;;19.47;96.75;100457.50;5031716;28;20063;-81
2022/06/24 00:12:43;;;;;;;14.10;10.23;;;;;;;19.59;96.51;100458.00;5036605;28;20030;-81
2022/06/24 00:15:09;;;;;;;15.37;10.30;;;;;;;19.58;97.07;100450.88;5020910;28;20116;-80
2022/06/24 00:17:34;;;;;;;13.52;9.90;;;;;;;19.61;97.80;100491.53;5016305;28;20033;-81
2022/06/24 00:20:08;;;;;;;10.00;7.63;;;;;;;19.71;94.22;100535.44;5017634;28;20032;-81
2022/06/24 00:22:43;;;;;;;10.18;6.95;;;;;;;19.70;93.11;100555.78;5018969;28;20135;-80
2022/06/24 00:25:28;;;;;;;11.13;7.13;;;;;;;19.92;91.42;100579.38;5023857;28;20030;-81
2022/06/24 00:28:08;;;;;;;12.65;8.57;;;;;;;20.05;92.12;100573.28;5012909;28;20044;-82
2022/06/24 00:30:44;;;;;;;18.95;12.07;;;;;;;20.00;94.40;100581.56;5017416;28;20029;-84
2022/06/24 00:33:23;;;;;;;17.43;12.80;;;;;;;19.91;95.68;100610.75;5023547;28;20056;-81
2022/06/24 00:35:51;;;;;;;21.48;15.52;;;;;;;19.81;97.65;100644.56;5027548;28;20473;-81
2022/06/24 00:38:23;;;;;;;24.00;18.15;;;;;;;19.73;100.00;100692.69;5020260;28;20121;-83
2022/06/24 00:40:55;;;;;;;29.33;22.90;;;;;;;19.62;100.00;100695.72;5016139;28;20417;-83
2022/06/24 00:43:25;;;;;;;29.30;24.60;;;;;;;19.56;100.00;100681.97;5015139;28;20032;-81
2022/06/24 00:45:56;;;;;;;29.43;25.20;;;;;;;19.42;100.00;100658.09;5022535;28;20064;-81
2022/06/24 00:48:24;;;;;;;33.27;26.43;;;;;;;19.34;100.00;100663.03;5019320;28;20032;-80
2022/06/24 00:50:50;;;;;;;26.77;23.17;;;;;;;19.11;100.00;100671.81;5016513;28;20080;-82
2022/06/24 00:53:15;;;;;;;10.43;6.50;;;;;;;18.52;98.86;100660.97;5015316;28;20057;-83
2022/06/24 00:55:41;;;;;;;8.93;5.27;;;;;;;18.16;98.50;100657.28;5014102;28;20040;-82
2022/06/24 00:58:13;;;;;;;7.67;4.60;;;;;;;17.77;98.97;100658.38;5016152;28;20116;-83
2022/06/24 01:00:42;;;;;;;7.53;3.60;;;;;;;17.55;98.29;100656.59;5016005;28;20032;-82
2022/06/24 01:03:07;;;;;;;3.67;2.70;;;;;;;17.33;98.26;100634.81;5014403;28;20493;-81
2022/06/24 01:05:33;;;;;;;3.90;2.80;;;;;;;17.21;98.71;100628.69;5015018;28;20065;-81
2022/06/24 01:08:06;;;;;;;4.60;2.80;;;;;;;17.07;99.71;100635.69;5014889;28;20076;-81
2022/06/24 01:10:32;;;;;;;5.63;3.00;;;;;;;16.97;100.00;100634.53;5013434;28;20114;-81
2022/06/24 01:12:57;;;;;;;6.70;2.80;;;;;;;16.93;100.00;100627.94;5022465;28;20029;-81
2022/06/24 01:15:22;;;;;;;5.10;2.80;;;;;;;16.86;100.00;100627.25;5014135;28;20104;-81
2022/06/24 01:17:48;;;;;;;3.27;2.30;;;;;;;16.75;100.00;100614.56;5015619;28;20401;-81
2022/06/24 01:20:13;;;;;;;4.37;2.37;;;;;;;16.71;100.00;100611.53;5027732;28;20445;-81
2022/06/24 01:22:40;;;;;;;3.00;2.20;;;;;;;16.69;100.00;100611.78;5033045;28;20072;-81
2022/06/24 01:25:07;;;;;;;2.97;2.03;;;;;;;16.65;100.00;100616.13;5013898;28;20033;-81
2022/06/24 01:27:32;;;;;;;4.27;2.10;;;;;;;16.59;100.00;100600.75;5026100;28;20034;-81
2022/06/24 01:29:58;;;;;;;3.13;2.10;;;;;;;16.56;100.00;100590.31;5015503;28;20037;-80
2022/06/24 01:32:23;;;;;;;2.93;2.10;;;;;;;16.55;100.00;100585.97;5014756;28;20032;-81
2022/06/24 01:34:49;;;;;;;3.30;2.13;;;;;;;16.46;100.00;100573.81;5023781;28;20369;-81
2022/06/24 01:37:14;;;;;;;3.17;2.20;;;;;;;16.46;100.00;100579.28;5022478;28;20065;-81
2022/06/24 01:39:40;;;;;;;5.00;2.23;;;;;;;16.42;100.00;100568.03;4995805;28;20511;-81
2022/06/24 01:42:07;;;;;;;3.47;2.37;;;;;;;16.47;100.00;100578.19;5013156;28;20032;-81
2022/06/24 01:44:32;;;;;;;4.23;2.40;;;;;;;16.45;100.00;100572.16;5020686;28;20094;-81
2022/06/24 01:46:58;;;;;;;5.80;2.17;;;;;;;16.46;100.00;100543.75;5014974;28;20121;-81
2022/06/24 01:49:24;;;;;;;2.47;2.13;;;;;;;16.41;100.00;100540.94;5012196;28;20034;-81
2022/06/24 01:51:52;;;;;;;2.53;2.20;;;;;;;16.45;100.00;100550.28;5020361;28;20038;-81
2022/06/24 01:54:17;;;;;;;4.77;2.30;;;;;;;16.44;100.00;100551.38;5023092;28;20029;-81
2022/06/24 01:56:42;;;;;;;4.73;2.60;;;;;;;16.44;100.00;100554.09;5035193;28;20389;-81
2022/06/24 01:59:08;;;;;;;3.20;2.50;;;;;;;16.41;100.00;100551.88;5031398;28;20022;-82
2022/06/24 02:01:33;;;;;;;3.97;2.60;;;;;;;16.37;100.00;100544.22;5025424;28;20030;-82
2022/06/24 02:03:59;;;;;;;7.17;2.93;;;;;;;16.48;100.00;100549.75;5014469;28;20100;-82
2022/06/24 02:06:24;;;;;;;3.00;2.60;;;;;;;16.48;100.00;100552.50;5012161;28;20026;-82
2022/06/24 02:08:51;;;;;;;3.13;2.13;;;;;;;16.47;100.00;100561.78;5022419;28;20062;-82
2022/06/24 02:14:03;;;;;;;;;;;;;;;16.53;100.00;100564.31;5014504;28;20092;-83
2022/06/24 02:16:28;;;;;;;3.10;2.20;;;;;;;16.49;100.00;100562.34;5015541;28;19913;-82
2022/06/24 02:18:55;;;;;;;2.67;2.20;;;;;;;16.47;100.00;100559.88;5014774;28;20032;-83
2022/06/24 02:21:22;;;;;;;3.97;2.47;;;;;;;16.49;100.00;100567.84;5020805;28;20029;-82
2022/06/24 02:23:47;;;;;;;4.73;2.77;;;;;;;16.51;100.00;100561.03;5015171;28;20049;-82
2022/06/24 02:26:13;;;;;;;5.27;2.63;;;;;;;16.54;100.00;100568.69;5022885;28;20045;-82
2022/06/24 02:28:38;;;;;;;5.13;2.97;;;;;;;16.63;100.00;100558.13;5012388;28;20044;-82
2022/06/24 02:31:05;;;;;;;4.87;3.00;;;;;;;16.64;100.00;100569.88;5014366;28;20375;-82
2022/06/24 02:33:30;;;;;;;6.23;2.87;;;;;;;16.62;100.00;100561.94;5020319;28;20029;-82
2022/06/24 02:35:56;;;;;;;4.50;2.73;;;;;;;16.66;100.00;100565.00;5018219;28;20026;-82
2022/06/24 02:38:21;;;;;;;3.67;2.80;;;;;;;16.64;100.00;100554.28;5015989;28;20378;-83
2022/06/24 02:40:50;;;;;;;4.47;2.93;;;;;;;16.78;100.00;100560.19;5027974;28;20097;-83
2022/06/24 02:43:22;;;;;;;3.87;3.47;;;;;;;16.65;100.00;100522.31;5027090;28;20030;-83
2022/06/24 02:45:53;;;;;;;3.43;3.13;;;;;;;16.79;100.00;100545.38;5013719;28;20109;-83
2022/06/24 02:48:20;;;;;;;7.40;3.30;;;;;;;16.78;100.00;100567.53;5029180;28;20044;-83
2022/06/24 02:50:50;;;;;;;4.27;3.30;;;;;;;16.83;100.00;100567.59;5018335;28;20427;-83
2022/06/24 02:53:17;;;;;;;3.47;3.17;;;;;;;16.82;100.00;100549.53;5013903;28;20060;-83
2022/06/24 02:55:49;;;;;;;3.77;3.40;;;;;;;16.78;100.00;100554.72;5012604;28;20096;-83
2022/06/24 02:58:15;;;;;;;4.73;3.70;;;;;;;16.91;100.00;100548.00;5013367;28;20026;-83
2022/06/24 03:00:44;;;;;;;5.80;3.90;;;;;;;16.82;100.00;100541.31;5012922;28;20458;-83
2022/06/24 03:03:11;;;;;;;3.87;3.50;;;;;;;16.76;100.00;100537.72;5013384;28;20033;-83
2022/06/24 03:05:36;;;;;;;3.63;3.30;;;;;;;16.73;100.00;100524.56;5014566;28;20025;-82
2022/06/24 03:08:02;;;;;;;5.63;3.80;;;;;;;16.82;100.00;100528.47;5013697;28;20099;-83
2022/06/24 03:10:28;;;;;;;6.40;3.90;;;;;;;16.84;100.00;100515.34;5012530;28;20374;-83
2022/06/24 03:12:53;;;;;;;4.30;3.90;;;;;;;16.84;100.00;100500.84;5016981;28;20029;-83
2022/06/24 03:15:19;;;;;;;4.30;3.90;;;;;;;16.85;100.00;100505.25;5013037;28;20403;-83
2022/06/24 03:17:44;;;;;;;6.00;3.80;;;;;;;16.85;100.00;100497.84;5024604;28;20124;-83
2022/06/24 03:20:10;;;;;;;5.00;3.50;;;;;;;16.83;100.00;100499.19;5011782;28;20042;-83
2022/06/24 03:22:37;;;;;;;4.87;3.70;;;;;;;16.85;100.00;100494.31;5011095;28;20056;-83
2022/06/24 03:25:04;;;;;;;7.17;4.10;;;;;;;16.94;100.00;100481.78;5013937;28;20026;-84
2022/06/24 03:27:29;;;;;;;4.10;3.70;;;;;;;17.00;100.00;100472.53;5025265;28;20026;-84
2022/06/24 03:29:55;;;;;;;5.63;3.60;;;;;;;16.98;100.00;100461.00;5011952;28;20076;-84
2022/06/24 03:32:20;;;;;;;4.43;3.60;;;;;;;16.89;100.00;100462.63;5013619;28;20037;-84
2022/06/24 03:34:46;;;;;;;5.77;3.87;;;;;;;16.94;100.00;100476.31;5013289;28;20038;-84
2022/06/24 03:37:11;;;;;;;5.57;4.00;;;;;;;16.94;100.00;100473.56;5014242;28;20080;-84
2022/06/24 03:39:37;;;;;;;6.27;4.07;;;;;;;16.99;100.00;100468.13;5013205;28;20030;-83
2022/06/24 03:42:03;;;;;;;7.20;4.33;;;;;;;16.92;100.00;100461.25;5012638;28;20102;-85
2022/06/24 03:44:29;;;;;;;6.17;4.70;;;;;;;16.92;100.00;100456.59;5013227;28;20046;-83
2022/06/24 03:46:54;;;;;;;6.13;4.57;;;;;;;16.93;100.00;100462.91;5016070;28;20125;-84
2022/06/24 03:49:19;;;;;;;5.20;4.70;;;;;;;16.90;100.00;100466.16;5017377;28;20478;-84
2022/06/24 03:51:46;;;;;;;6.13;5.03;;;;;;;16.88;100.00;100475.41;5016240;28;20030;-84
2022/06/24 03:54:11;;;;;;;6.10;5.10;;;;;;;16.89;100.00;100476.28;5017380;28;20034;-83
2022/06/24 03:56:36;;;;;;;6.80;5.53;;;;;;;16.91;100.00;100476.84;5032741;28;20036;-83
2022/06/24 03:59:02;;;;;;;5.50;5.00;;;;;;;16.85;100.00;100472.41;5023676;28;20037;-84
2022/06/24 04:01:27;;;;;;;6.13;5.30;;;;;;;16.92;100.00;100474.91;5016521;28;20018;-83
2022/06/24 04:03:53;;;;;;;6.60;5.90;;;;;;;16.92;100.00;100473.03;5014475;28;20377;-83
2022/06/24 04:06:19;;;;;;;6.10;5.20;;;;;;;16.97;100.00;100459.38;5015485;28;20057;-83
2022/06/24 04:08:44;;;;;;;6.63;5.40;;;;;;;16.86;100.00;100465.81;5022902;28;20462;-83
2022/06/24 04:11:14;;;;;;;6.80;5.17;;;;;;;16.79;100.00;100473.44;5014861;28;20030;-83
2022/06/24 04:13:40;;;;;;;8.53;5.50;;;;;;;16.78;100.00;100485.47;5026185;28;20030;-83
2022/06/24 04:16:06;;;;;;;5.80;5.20;;;;;;;16.81;100.00;100484.94;5015102;28;20037;-83
2022/06/24 04:18:32;;;;;;;7.73;5.50;;;;;;;16.86;100.00;100506.88;5014077;28;20034;-83
2022/06/24 04:20:58;;;;;;;8.23;5.40;;;;;;;16.84;100.00;100525.47;5017395;28;20037;-83
2022/06/24 04:23:23;;;;;;;7.43;5.27;;;;;;;16.83;100.00;100526.56;5017060;28;20045;-84
2022/06/24 04:25:49;;;;;;;6.37;5.00;;;;;;;16.80;100.00;100529.81;5019274;28;20033;-83
2022/06/24 04:28:15;;;;;;;7.60;5.20;;;;;;;16.84;100.00;100536.41;5028953;28;20032;-83
2022/06/24 04:30:41;;;;;;;8.50;5.33;;;;;;;16.82;100.00;100527.63;5023543;28;20104;-83
2022/06/24 04:33:06;;;;;;;7.23;5.40;;;;;;;16.84;100.00;100525.47;5016646;28;20394;-83
2022/06/24 04:35:32;;;;;;;6.90;5.30;;;;;;;16.85;100.00;100524.41;5016259;28;20037;-83
2022/06/24 04:37:57;;;;;;;6.53;5.37;;;;;;;16.87;100.00;100522.22;5016363;28;20045;-83
2022/06/24 04:40:23;;;;;;;6.43;5.37;;;;;;;16.80;100.00;100513.41;5016040;28;20032;-84
2022/06/24 04:42:48;;;;;;;10.13;5.77;;;;;;;16.82;100.00;100517.53;5015259;28;20033;-83
2022/06/24 04:45:14;;;;;;;7.10;5.83;;;;;;;16.84;100.00;100518.09;5015350;28;20474;-83
2022/06/24 04:47:40;;;;;;;8.63;6.20;;;;;;;16.91;100.00;100525.28;5026209;28;20033;-83
2022/06/24 04:50:06;;;;;;;7.87;5.90;;;;;;;16.88;100.00;100530.16;5022121;28;20034;-83
2022/06/24 04:52:32;;;;;;;8.43;5.83;;;;;;;16.89;100.00;100528.28;5016222;28;20450;-82
2022/06/24 04:54:58;;;;;;;7.87;6.23;;;;;;;16.93;100.00;100523.09;5025140;28;20079;-83
2022/06/24 04:57:23;;;;;;;8.07;6.17;;;;;;;16.93;100.00;100520.34;5015807;28;20553;-83
2022/06/24 04:59:48;;;;;;;7.80;6.40;;;;;;;16.98;100.00;100531.34;5029274;28;20037;-82
2022/06/24 05:02:14;;;;;;;8.93;6.77;;;;;;;17.03;100.00;100532.22;5024562;28;20017;-83
2022/06/24 05:04:39;;;;;;;8.37;7.10;;;;;;;17.07;100.00;100527.03;5015052;28;20092;-82
2022/06/24 05:07:05;;;;;;;9.97;7.57;;;;;;;17.07;100.00;100523.47;5023650;28;20048;-83
2022/06/24 05:09:30;;;;;;;9.87;7.60;;;;;;;17.24;100.00;100518.66;5023115;28;20029;-82
2022/06/24 05:11:56;;;;;;;11.23;8.40;;;;;;;17.27;100.00;100507.19;5014549;28;20030;-83
2022/06/24 05:14:22;;;;;;;10.83;8.40;;;;;;;17.23;100.00;100527.97;5016301;28;20473;-82
2022/06/24 05:16:48;;;;;;;10.43;8.13;;;;;;;17.30;100.00;100527.72;5013918;28;20077;-83
2022/06/24 05:19:13;;;;;;;9.30;7.20;;;;;;;17.26;100.00;100530.19;5016607;28;20482;-83
2022/06/24 05:21:39;;;;;;;9.83;8.00;;;;;;;17.40;100.00;100536.00;4997465;28;20037;-87
2022/06/24 05:24:05;;;;;;;8.93;7.53;;;;;;;17.45;100.00;100532.47;4994923;28;20046;-83
2022/06/24 05:26:30;;;;;;;9.63;7.80;;;;;;;17.44;100.00;100528.09;5003016;28;20385;-82
2022/06/24 05:28:56;;;;;;;10.87;7.57;;;;;;;17.45;100.00;100532.47;5016281;28;20034;-82
2022/06/24 05:31:21;;;;;;;11.20;8.20;;;;;;;17.51;100.00;100537.69;5014617;28;20033;-82
2022/06/24 05:33:46;;;;;;;11.03;8.17;;;;;;;17.42;100.00;100520.16;5016062;28;20026;-82
2022/06/24 05:36:12;;;;;;;12.10;8.00;;;;;;;17.53;100.00;100542.94;5014280;28;20030;-82
2022/06/24 05:38:37;;;;;;;14.43;10.00;;;;;;;17.52;100.00;100535.81;5014957;28;20453;-82
2022/06/24 05:41:03;;;;;;;12.33;8.33;;;;;;;17.48;100.00;100538.25;5012788;28;20409;-83
2022/06/24 05:43:29;;;;;;;9.33;7.80;;;;;;;17.41;100.00;100529.44;5014895;28;20036;-83
2022/06/24 05:45:54;;;;;;;11.23;8.00;;;;;;;17.36;100.00;100527.47;5026938;28;20029;-83
2022/06/24 05:48:20;;;;;;;11.67;8.23;;;;;;;17.33;100.00;100529.94;5025350;28;20112;-83
2022/06/24 05:50:45;;;;;;;10.37;8.30;;;;;;;17.36;100.00;100540.38;5034138;28;20397;-84
2022/06/24 05:56:00;;;;;;;9.93;8.65;;;;;;;17.36;100.00;100538.44;5014784;28;20064;-83
2022/06/24 05:58:29;;;;;;;11.90;8.93;;;;;;;17.33;100.00;100528.03;5032485;28;20364;-83
2022/06/24 06:00:55;;;;;;;10.30;8.97;;;;;;;17.31;100.00;100535.69;5020501;28;20033;-83
2022/06/24 06:03:25;;;;;;;11.60;9.27;;;;;;;17.30;100.00;100530.44;5014584;28;20056;-85
2022/06/24 06:05:51;;;;;;;12.87;9.60;;;;;;;17.31;100.00;100529.38;5014324;28;20045;-84
2022/06/24 06:08:17;;;;;;;13.57;10.93;;;;;;;17.26;100.00;100532.91;5013940;28;20030;-84
2022/06/24 06:10:46;;;;;;;16.77;11.77;;;;;;;17.26;100.00;100546.59;5014896;28;20054;-84
2022/06/24 06:13:12;;;;;;;16.77;13.40;;;;;;;17.24;100.00;100539.75;5015914;28;20358;-85
2022/06/24 06:15:39;;;;;;;14.07;12.20;;;;;;;17.27;100.00;100544.69;5005968;28;20061;-85
2022/06/24 06:18:05;;;;;;;16.47;12.53;;;;;;;17.20;100.00;100528.47;5011864;28;20104;-85
2022/06/24 06:20:30;;;;;;;13.70;11.47;;;;;;;17.35;100.00;100539.56;5013704;28;20076;-86
2022/06/24 06:22:56;;;;;;;15.47;13.10;;;;;;;17.41;100.00;100534.91;5016738;28;20046;-85
2022/06/24 06:25:22;;;;;;;18.50;13.97;;;;;;;17.41;100.00;100540.41;5014539;28;20339;-86
2022/06/24 06:27:51;;;;;;;17.03;14.13;;;;;;;17.38;100.00;100543.69;5015018;28;20049;-85
2022/06/24 06:30:17;;;;;;;15.23;12.27;;;;;;;17.44;100.00;100553.56;5015119;28;20030;-86
2022/06/24 06:32:42;;;;;;;14.97;11.47;;;;;;;17.42;100.00;100550.28;5022022;28;20485;-83
2022/06/24 06:35:08;;;;;;;15.50;11.33;;;;;;;17.31;100.00;100535.69;5031103;28;20045;-85
2022/06/24 06:37:34;;;;;;;16.27;12.20;;;;;;;17.40;100.00;100554.34;5014325;28;20355;-85
2022/06/24 06:39:59;;;;;;;16.73;12.60;;;;;;;17.41;100.00;100559.56;5013804;28;20036;-85
2022/06/24 06:42:25;;;;;;;16.40;12.37;;;;;;;17.47;100.00;100561.22;5013936;28;20466;-86
2022/06/24 06:44:50;;;;;;;16.50;11.53;;;;;;;17.51;100.00;100556.06;5000741;28;20220;-87
2022/06/24 06:47:15;;;;;;;15.10;11.87;;;;;;;17.54;100.00;100563.75;5001670;28;20590;-87
2022/06/24 06:49:41;;;;;;;15.77;12.43;;;;;;;17.51;100.00;100565.09;4999952;28;20680;-87
2022/06/24 06:52:07;;;;;;;15.30;12.20;;;;;;;17.52;100.00;100568.66;4999575;28;20460;-87
2022/06/24 06:54:32;;;;;;;15.90;13.10;;;;;;;17.48;100.00;100560.16;4999742;28;20494;-87
2022/06/24 06:56:58;;;;;;;16.47;12.10;;;;;;;17.52;100.00;100552.25;5000334;28;20040;-86
2022/06/24 06:59:23;;;;;;;16.47;12.93;;;;;;;17.60;100.00;100568.16;4999965;28;20762;-86
2022/06/24 07:01:49;;;;;;;15.37;12.70;;;;;;;17.57;100.00;100560.50;5002224;28;20099;-87
2022/06/24 07:04:15;;;;;;;18.33;14.23;;;;;;;17.58;100.00;100551.16;5000905;28;20069;-87
2022/06/24 07:06:40;;;;;;;18.00;14.37;;;;;;;17.60;100.00;100549.00;5000719;28;20445;-86
2022/06/24 07:09:06;;;;;;;20.70;14.67;;;;;;;17.61;100.00;100558.88;5016295;28;20040;-87
2022/06/24 07:11:31;;;;;;;18.20;13.57;;;;;;;17.58;100.00;100550.34;4999671;28;20490;-87
2022/06/24 07:13:57;;;;;;;17.83;13.17;;;;;;;17.65;100.00;100559.13;5001631;28;20061;-87
2022/06/24 07:16:22;;;;;;;16.60;12.83;;;;;;;17.62;100.00;100556.94;5000528;28;20071;-86
2022/06/24 07:18:48;;;;;;;17.17;13.07;;;;;;;17.60;100.00;100548.16;4999879;28;20041;-88
2022/06/24 07:21:13;;;;;;;17.20;12.63;;;;;;;17.70;100.00;100561.91;5000576;28;20045;-85
2022/06/24 07:23:39;;;;;;;18.27;13.83;;;;;;;17.68;100.00;100553.16;5000377;28;20053;-85
2022/06/24 07:26:05;;;;;;;17.27;13.93;;;;;;;17.64;100.00;100550.09;4998103;28;20041;-86
2022/06/24 07:28:31;;;;;;;18.23;14.17;;;;;;;17.71;100.00;100555.34;4996300;28;20029;-84
2022/06/24 07:30:56;;;;;;;16.87;14.17;;;;;;;17.74;100.00;100545.78;4996516;28;20021;-86
2022/06/24 07:33:23;;;;;;;19.67;15.77;;;;;;;17.74;100.00;100526.59;4995334;28;20044;-85
2022/06/24 07:35:49;;;;;;;19.33;15.80;;;;;;;17.78;100.00;100535.94;4978315;28;20057;-83
2022/06/24 07:38:14;;;;;;;19.50;15.73;;;;;;;17.72;100.00;100522.19;4994770;28;20034;-85
2022/06/24 07:40:40;;;;;;;18.80;15.20;;;;;;;17.79;100.00;100523.84;4978312;28;20052;-84
2022/06/24 07:43:06;;;;;;;17.43;14.23;;;;;;;17.79;100.00;100518.38;4995545;28;20128;-84
2022/06/24 07:45:32;;;;;;;18.30;15.33;;;;;;;17.92;100.00;100528.88;5010942;28;20042;-84
2022/06/24 07:47:57;;;;;;;19.10;15.53;;;;;;;17.75;100.00;100520.00;4998529;28;20038;-85
2022/06/24 07:50:22;;;;;;;18.43;15.17;;;;;;;17.72;100.00;100524.94;4998936;28;20421;-84
2022/06/24 07:52:49;;;;;;;18.13;14.53;;;;;;;17.85;100.00;100534.56;4999590;28;20033;-85
2022/06/24 07:57:58;;;;;;;17.10;14.60;;;;;;;17.92;100.00;100542.56;5001616;28;20125;-85
2022/06/24 08:00:23;;;;;;;15.63;13.30;;;;;;;17.91;100.00;100551.88;5000710;28;20425;-85
2022/06/24 08:02:49;;;;;;;17.83;13.53;;;;;;;17.93;100.00;100552.44;4999495;28;20729;-85
2022/06/24 08:05:15;;;;;;;16.30;14.03;;;;;;;17.86;100.00;100552.66;5001489;28;21254;-85
2022/06/24 08:07:41;;;;;;;16.40;14.60;;;;;;;17.86;100.00;100555.41;4998716;28;20057;-83
2022/06/24 08:10:06;;;;;;;18.10;14.93;;;;;;;17.83;100.00;100558.69;5000839;28;20553;-84
2022/06/24 08:12:32;;;;;;;18.77;14.67;;;;;;;17.88;100.00;100555.97;5000109;28;20046;-86
2022/06/24 08:14:57;;;;;;;18.87;15.77;;;;;;;17.86;100.00;100560.06;5000597;28;20038;-84
2022/06/24 08:17:23;;;;;;;18.50;15.90;;;;;;;17.88;100.00;100555.13;5000990;28;20040;-87
2022/06/24 08:19:48;;;;;;;17.57;15.53;;;;;;;17.91;100.00;100556.53;5001013;28;20481;-88
2022/06/24 08:22:14;;;;;;;16.80;14.77;;;;;;;17.85;100.00;100558.41;5000577;28;20046;-87
2022/06/24 08:24:40;;;;;;;17.33;15.47;;;;;;;17.85;100.00;100551.00;4998761;28;20127;-86
2022/06/24 08:27:06;;;;;;;19.43;17.20;;;;;;;17.91;100.00;100564.75;5000101;28;20084;-86
2022/06/24 08:29:31;;;;;;;21.77;18.33;;;;;;;17.92;100.00;100555.47;5000107;28;20127;-85
2022/06/24 08:31:56;;;;;;;22.93;18.57;;;;;;;17.94;100.00;100545.88;5003276;28;20041;-86
2022/06/24 08:34:22;;;;;;;21.57;18.70;;;;;;;18.01;100.00;100540.97;5007801;28;20171;-83
2022/06/24 08:36:48;;;;;;;24.33;21.67;;;;;;;18.07;100.00;100543.72;5013266;28;20137;-85
2022/06/24 08:39:13;;;;;;;23.80;21.20;;;;;;;18.12;100.00;100538.25;5002518;28;20064;-85
2022/06/24 08:41:39;;;;;;;23.23;20.53;;;;;;;18.19;100.00;100549.78;5006205;28;20112;-83
2022/06/24 08:44:04;;;;;;;23.50;20.90;;;;;;;18.23;100.00;100567.34;5016089;28;20034;-84
2022/06/24 08:46:30;;;;;;;24.53;21.40;;;;;;;18.21;100.00;100553.09;5016689;28;20033;-84
2022/06/24 08:48:58;;;;;;;24.53;20.90;;;;;;;18.27;100.00;100559.41;5015293;28;20382;-83
2022/06/24 08:51:24;;;;;;;26.20;23.42;;;;;;;18.31;100.00;100558.59;5010932;28;20049;-84
2022/06/24 08:53:55;;;;;;;26.23;23.47;;;;;;;18.33;100.00;100563.81;5015907;28;20068;-83
2022/06/24 08:56:20;;;;;;;25.38;22.38;;;;;;;18.32;100.00;100537.50;5015159;28;20100;-83
2022/06/24 08:58:45;;;;;;;25.63;22.87;;;;;;;18.44;100.00;100549.03;5015652;28;20026;-83
2022/06/24 09:01:18;;;;;;;25.48;22.67;;;;;;;18.44;100.00;100537.22;5013441;28;20026;-82
2022/06/24 09:03:44;;;;;;;24.43;21.83;;;;;;;18.58;100.00;100546.59;5013299;28;20512;-83
2022/06/24 09:06:14;;;;;;;25.50;22.30;;;;;;;18.69;100.00;100541.91;5012929;28;20025;-83
2022/06/24 09:08:44;;;;;;;25.42;22.70;;;;;;;18.88;100.00;100551.28;5013553;28;20121;-83
2022/06/24 09:11:10;;;;;;;25.00;22.40;;;;;;;19.01;100.00;100547.16;5010946;28;20056;-84
2022/06/24 09:13:46;;;;;;;23.27;20.88;;;;;;;19.09;100.00;100539.47;5024621;28;20033;-84
2022/06/24 09:16:14;;;;;;;24.65;21.92;;;;;;;19.22;100.00;100534.22;5012864;28;20037;-85
2022/06/24 09:18:40;;;;;;;20.63;18.00;;;;;;;19.35;100.00;100532.84;5023540;28;20118;-85
2022/06/24 09:21:06;;;;;;;19.65;16.08;;;;;;;19.42;96.54;100542.69;5017736;28;20501;-85
2022/06/24 09:23:32;;;;;;;16.38;13.80;;;;;;;19.64;97.87;100540.44;5014407;28;20406;-85
2022/06/24 09:26:00;;;;;;;15.57;12.68;;;;;;;19.80;94.51;100543.13;5013638;28;20041;-84
2022/06/24 09:28:30;;;;;;;17.42;13.70;;;;;;;19.93;92.87;100545.28;5011316;28;20124;-84
2022/06/24 09:31:07;;;;;;;14.20;12.00;;;;;;;20.04;91.27;100549.63;5013335;28;20034;-84
2022/06/24 09:33:37;;;;;;;17.15;12.00;;;;;;;20.15;91.14;100555.09;5022106;28;20029;-84
2022/06/24 09:36:09;;;;;;;12.77;11.10;;;;;;;20.26;89.04;100551.16;5012745;28;20434;-84
2022/06/24 09:38:54;;;;;;;12.88;10.02;;;;;;;20.56;88.37;100543.81;5014292;28;20018;-84
2022/06/24 09:41:20;;;;;;;13.95;11.38;;;;;;;20.73;85.81;100547.03;4997548;28;20022;-84
2022/06/24 09:43:46;;;;;;;12.82;10.93;;;;;;;20.86;85.56;100556.56;5013643;28;20105;-83
2022/06/24 09:46:19;;;;;;;12.48;10.43;;;;;;;21.10;86.30;100557.75;5012868;28;20030;-82
2022/06/24 09:48:45;;;;;;;9.38;8.35;;;;;;;21.64;83.83;100555.84;5014273;28;20455;-83
2022/06/24 09:51:11;;;;;;;9.43;8.35;;;;;;;21.63;79.96;100555.00;5020150;28;20029;-82
2022/06/24 09:53:42;;;;;;;8.82;7.38;;;;;;;21.81;78.47;100558.09;5009840;28;20117;-83
2022/06/24 09:56:09;;;;;;;9.57;8.07;;;;;;;22.05;77.44;100547.84;5012403;28;20033;-82
2022/06/24 09:58:39;;;;;;;9.18;7.43;;;;;;;22.42;78.44;100549.03;5023224;28;20025;-82
2022/06/24 10:01:06;;;;;;;8.63;6.75;;;;;;;22.75;76.28;100551.00;5004985;28;20036;-82
2022/06/24 10:03:33;;;;;;;6.88;6.20;;;;;;;23.06;75.76;100556.81;5019974;28;20021;-83
2022/06/24 10:06:08;;;;;;;9.07;7.10;;;;;;;23.04;72.49;100536.97;5012763;28;20127;-83
2022/06/24 10:08:35;;;;;;;8.50;7.53;;;;;;;23.57;72.85;100554.28;5012507;28;20123;-82
2022/06/24 10:11:06;;;;;;;10.57;8.18;;;;;;;23.75;69.51;100556.09;5012155;28;20112;-83
2022/06/24 10:13:33;;;;;;;11.65;9.77;;;;;;;23.47;67.22;100557.25;5021184;28;20017;-83
2022/06/24 10:16:03;;;;;;;10.88;9.35;;;;;;;23.96;70.25;100550.19;5026222;28;20038;-83
2022/06/24 10:18:43;;;;;;;12.15;9.05;;;;;;;23.94;69.59;100547.72;5013542;28;20030;-83
2022/06/24 10:21:10;;;;;;;11.55;10.15;;;;;;;23.70;68.61;100542.38;5006851;28;20034;-83
2022/06/24 10:23:45;;;;;;;11.75;10.55;;;;;;;23.58;69.51;100544.84;5014988;28;20096;-83
2022/06/24 10:26:13;;;;;;;12.40;10.70;;;;;;;23.75;70.06;100545.03;5012293;28;20037;-83
2022/06/24 10:29:08;;;;;;;13.35;11.27;;;;;;;23.82;68.23;100541.06;5011500;28;20378;-82
2022/06/24 10:31:42;;;;;;;13.23;11.00;;;;;;;23.35;69.69;100546.66;5019318;28;20073;-82
2022/06/24 10:34:12;;;;;;;13.75;12.02;;;;;;;23.06;69.64;100547.72;5009427;28;20068;-83
2022/06/24 10:36:38;;;;;;;12.40;11.10;;;;;;;22.97;70.52;100542.09;5012009;28;20033;-83
2022/06/24 10:39:11;;;;;;;10.55;9.50;;;;;;;23.14;70.36;100544.28;5028854;28;20034;-84
2022/06/24 10:41:37;;;;;;;;;;;;;;;23.62;68.60;100551.41;5023191;28;20025;-83
2022/06/24 10:44:22;;;;;;;13.85;10.77;;;;;;;23.04;70.83;100550.00;5021468;28;19940;-83
2022/06/24 10:47:07;;;;;;;14.85;11.95;;;;;;;22.68;72.37;100545.84;5013994;28;20409;-83
2022/06/24 10:49:54;;;;;;;7.95;6.38;;;;;;;22.53;71.30;100571.75;5016905;28;20436;-82
2022/06/24 10:52:48;;;;;;;6.30;5.63;;;;;;;21.87;72.72;100581.75;5014093;28;20427;-84
2022/06/24 10:57:47;;;;;;;7.10;4.30;;;;;;;20.50;77.55;100589.81;5016994;28;20490;-85
2022/06/24 11:00:14;;;;;;;8.95;5.10;;;;;;;19.89;80.74;100583.50;5009888;28;20030;-82
2022/06/24 11:02:49;;;;;;;8.75;5.03;;;;;;;19.62;83.19;100586.59;5014936;28;20164;-84
2022/06/24 11:05:17;;;;;;;9.32;5.50;;;;;;;19.39;85.79;100599.84;5013275;28;20072;-85
2022/06/24 11:07:44;;;;;;;8.27;5.60;;;;;;;19.16;87.70;100600.41;5013431;28;20072;-85
2022/06/24 11:10:20;;;;;;;7.70;5.70;;;;;;;19.11;88.75;100598.50;5019887;28;20112;-85
2022/06/24 11:12:58;;;;;;;6.70;5.30;;;;;;;18.88;89.63;100586.97;5019992;28;20378;-85
2022/06/24 11:15:38;;;;;;;7.57;5.38;;;;;;;18.75;91.95;100575.69;5003931;28;20048;-83
2022/06/24 11:18:08;;;;;;;6.85;4.70;;;;;;;18.53;91.04;100580.31;5013088;28;20058;-83
2022/06/24 11:20:36;;;;;;;7.95;4.90;;;;;;;18.50;92.66;100566.31;5013078;28;20049;-83
2022/06/24 11:23:06;;;;;;;6.47;4.68;;;;;;;18.43;92.88;100560.25;5013234;28;20038;-83